Time;durP1;ratioP1;P1;durP2;ratioP2;P2;SDS_P1;SDS_P2;PMS_P1;PMS_P2;Temp;Humidity;BMP_temperature;BMP_pressure;BME280_temperature;BME280_humidity;BME280_pressure;Samples;Min_cycle;Max_cycle;Signal;HPM_P1;HPM_P2
2022/10/27 00:01:43;;;;;;;4.53;2.92;;;19.60;99.90;;;;;;4144268;28;20309;-76
2022/10/27 00:03:49;;;;;;;4.95;3.30;;;19.60;99.90;;;;;;4144911;28;20722;-76
2022/10/27 00:05:52;;;;;;;5.50;3.15;;;19.60;99.90;;;;;;4144743;28;20252;-76
2022/10/27 00:07:55;;;;;;;4.78;3.22;;;19.60;99.90;;;;;;4146863;28;20295;-76
2022/10/27 00:09:58;;;;;;;5.65;3.08;;;19.60;99.90;;;;;;4149298;28;20216;-76
2022/10/27 00:12:01;;;;;;;5.80;3.13;;;19.60;99.90;;;;;;4143842;28;20225;-76
2022/10/27 00:14:04;;;;;;;6.20;3.33;;;19.60;99.90;;;;;;4148290;28;20275;-76
2022/10/27 00:16:10;;;;;;;5.30;2.60;;;19.60;99.90;;;;;;4144182;28;20221;-76
2022/10/27 00:18:12;;;;;;;3.85;2.90;;;19.60;99.90;;;;;;4144838;28;20217;-76
2022/10/27 00:20:14;;;;;;;4.70;3.10;;;19.60;99.90;;;;;;4144889;28;20213;-76
2022/10/27 00:22:17;;;;;;;4.72;3.38;;;19.60;99.90;;;;;;4144631;28;20276;-76
2022/10/27 00:24:19;;;;;;;3.75;2.90;;;19.60;99.90;;;;;;4145166;28;20271;-75
2022/10/27 00:26:22;;;;;;;4.55;2.78;;;19.60;99.90;;;;;;4143728;28;20213;-75
2022/10/27 00:28:27;;;;;;;4.25;2.80;;;19.60;99.90;;;;;;4144862;28;20317;-76
2022/10/27 00:30:29;;;;;;;4.85;3.10;;;19.60;99.90;;;;;;4138089;28;20613;-75
2022/10/27 00:32:31;;;;;;;5.57;3.40;;;19.60;99.90;;;;;;4144571;28;20201;-76
2022/10/27 00:34:34;;;;;;;7.07;3.25;;;19.60;99.90;;;;;;4140252;28;20267;-76
2022/10/27 00:36:36;;;;;;;4.07;3.08;;;19.60;99.90;;;;;;4145017;28;20276;-76
2022/10/27 00:38:39;;;;;;;3.83;3.05;;;19.60;99.90;;;;;;4142955;28;20271;-76
2022/10/27 00:40:41;;;;;;;5.28;3.40;;;19.60;99.90;;;;;;4137349;28;20271;-76
2022/10/27 00:42:43;;;;;;;5.22;2.97;;;19.60;99.90;;;;;;4143707;28;20225;-75
2022/10/27 00:44:47;;;;;;;4.97;2.92;;;19.50;99.90;;;;;;4145113;28;20264;-75
2022/10/27 00:46:50;;;;;;;5.15;3.28;;;19.60;99.90;;;;;;4147647;28;20218;-75
2022/10/27 00:48:57;;;;;;;5.03;3.00;;;19.50;99.90;;;;;;4147469;28;20233;-76
2022/10/27 00:51:02;;;;;;;4.35;3.30;;;19.60;99.90;;;;;;4147549;28;20217;-75
2022/10/27 00:53:04;;;;;;;3.90;3.40;;;19.60;99.90;;;;;;4144040;28;20272;-76
2022/10/27 00:55:10;;;;;;;5.13;3.08;;;19.60;99.90;;;;;;4147356;28;20221;-76
2022/10/27 00:57:12;;;;;;;4.30;2.95;;;19.50;99.90;;;;;;4147357;28;20217;-75
2022/10/27 00:59:15;;;;;;;3.20;2.58;;;19.50;99.90;;;;;;4146459;28;20217;-75
2022/10/27 01:01:19;;;;;;;4.70;3.08;;;19.50;99.90;;;;;;4146921;28;20303;-76
2022/10/27 01:03:23;;;;;;;5.03;2.80;;;19.50;99.90;;;;;;4147792;28;20303;-76
2022/10/27 01:05:29;;;;;;;4.93;2.95;;;19.50;99.90;;;;;;4144127;28;20319;-76
2022/10/27 01:07:31;;;;;;;5.22;3.13;;;19.50;99.90;;;;;;4146786;28;20217;-76
2022/10/27 01:09:34;;;;;;;4.57;3.15;;;19.50;99.90;;;;;;4148818;28;20670;-76
2022/10/27 01:11:36;;;;;;;4.25;3.15;;;19.50;99.90;;;;;;4147371;28;20223;-76
2022/10/27 01:13:39;;;;;;;3.92;2.78;;;19.50;99.90;;;;;;4147297;28;20217;-76
2022/10/27 01:15:49;;;;;;;3.97;2.50;;;19.50;99.90;;;;;;4146631;28;20217;-76
2022/10/27 01:17:58;;;;;;;5.88;3.08;;;19.50;99.90;;;;;;4147055;28;20224;-76
2022/10/27 01:20:26;;;;;;;3.95;2.92;;;19.50;99.90;;;;;;4145139;28;20988;-76
2022/10/27 01:22:32;;;;;;;4.22;2.95;;;19.50;99.90;;;;;;4145288;28;20233;-76
2022/10/27 01:24:43;;;;;;;3.97;2.83;;;19.50;99.90;;;;;;4143018;28;20213;-76
2022/10/27 01:26:50;;;;;;;4.60;2.92;;;19.50;99.90;;;;;;4137829;28;20688;-76
2022/10/27 01:29:24;;;;;;;4.53;3.17;;;19.50;99.90;;;;;;4148536;28;20213;-76
2022/10/27 01:31:32;;;;;;;5.07;2.70;;;19.50;99.90;;;;;;4143762;28;20217;-76
2022/10/27 01:33:40;;;;;;;5.93;2.90;;;19.50;99.90;;;;;;4139685;28;20221;-76
2022/10/27 01:35:50;;;;;;;5.15;3.30;;;19.50;99.90;;;;;;4145953;28;20229;-77
2022/10/27 01:38:00;;;;;;;4.35;2.97;;;19.50;99.90;;;;;;4146913;28;20727;-76
2022/10/27 01:40:07;;;;;;;4.65;2.75;;;19.50;99.90;;;;;;4142338;28;20279;-76
2022/10/27 01:42:12;;;;;;;5.15;2.60;;;19.50;99.90;;;;;;4146952;28;20283;-76
2022/10/27 01:44:21;;;;;;;5.38;2.85;;;19.50;99.90;;;;;;4146786;28;20217;-76
2022/10/27 01:46:23;;;;;;;3.80;3.00;;;19.50;99.90;;;;;;4146907;28;20255;-76
2022/10/27 01:48:29;;;;;;;3.85;2.80;;;19.50;99.90;;;;;;4146912;28;20208;-77
2022/10/27 01:50:35;;;;;;;4.97;2.80;;;19.50;99.90;;;;;;4142501;28;20299;-76
2022/10/27 01:52:41;;;;;;;4.25;2.90;;;19.40;99.90;;;;;;4146981;28;20217;-76
2022/10/27 01:54:44;;;;;;;3.78;2.78;;;19.50;99.90;;;;;;4147872;28;20213;-76
2022/10/27 01:57:08;;;;;;;3.78;2.78;;;19.50;99.90;;;;;;4143545;28;20674;-76
2022/10/27 01:59:50;;;;;;;4.82;2.65;;;19.50;99.90;;;;;;4148350;28;20593;-76
2022/10/27 02:02:02;;;;;;;4.47;2.63;;;19.50;99.90;;;;;;4123483;28;20310;-77
2022/10/27 02:04:13;;;;;;;4.07;2.92;;;19.50;99.90;;;;;;4147976;28;20280;-76
2022/10/27 02:06:22;;;;;;;4.80;2.85;;;19.50;99.90;;;;;;4147846;28;20274;-76
2022/10/27 02:08:31;;;;;;;5.28;2.72;;;19.50;99.90;;;;;;4145575;28;20673;-75
2022/10/27 02:10:40;;;;;;;3.80;2.67;;;19.50;99.90;;;;;;4147869;28;20217;-76
2022/10/27 02:12:43;;;;;;;6.25;2.53;;;19.40;99.90;;;;;;4145406;28;20205;-76
2022/10/27 02:14:49;;;;;;;3.90;2.65;;;19.50;99.90;;;;;;4148874;28;20221;-76
2022/10/27 02:16:53;;;;;;;4.28;2.85;;;19.40;99.90;;;;;;4145140;28;20807;-76
2022/10/27 02:19:02;;;;;;;4.32;2.47;;;19.50;99.90;;;;;;4147023;28;20639;-76
2022/10/27 02:21:09;;;;;;;4.30;2.65;;;19.40;99.90;;;;;;4147495;28;20643;-76
2022/10/27 02:23:16;;;;;;;3.97;2.50;;;19.40;99.90;;;;;;4144326;28;20236;-76
2022/10/27 02:25:20;;;;;;;3.63;2.53;;;19.40;99.90;;;;;;4143502;28;20570;-76
2022/10/27 02:27:30;;;;;;;4.55;2.60;;;19.40;99.90;;;;;;4144437;28;20221;-76
2022/10/27 02:29:35;;;;;;;4.57;2.72;;;19.40;99.90;;;;;;4146568;28;20217;-75
2022/10/27 02:31:41;;;;;;;3.72;2.58;;;19.40;99.90;;;;;;4148797;28;20736;-76
2022/10/27 02:33:44;;;;;;;3.67;2.50;;;19.40;99.90;;;;;;4145132;28;20217;-76
2022/10/27 02:35:47;;;;;;;4.82;2.58;;;19.40;99.90;;;;;;4149906;28;20220;-75
2022/10/27 02:37:51;;;;;;;5.50;3.08;;;19.40;99.90;;;;;;4146173;28;20213;-77
2022/10/27 02:39:56;;;;;;;4.05;2.90;;;19.40;99.90;;;;;;4145732;28;20225;-76
2022/10/27 02:41:58;;;;;;;4.35;2.40;;;19.50;99.90;;;;;;4148750;28;20291;-76
2022/10/27 02:44:01;;;;;;;4.50;3.08;;;19.40;99.90;;;;;;4148269;28;20721;-76
2022/10/27 02:46:03;;;;;;;4.05;2.58;;;19.50;99.90;;;;;;4150641;28;20221;-76
2022/10/27 02:48:05;;;;;;;5.32;3.20;;;19.50;99.90;;;;;;4145119;28;20217;-76
2022/10/27 02:50:08;;;;;;;4.50;2.72;;;19.40;99.90;;;;;;4147788;28;20271;-76
2022/10/27 02:52:11;;;;;;;4.57;2.55;;;19.40;99.90;;;;;;4144201;28;20271;-76
2022/10/27 02:54:14;;;;;;;4.40;2.60;;;19.40;99.90;;;;;;4143074;28;20639;-76
2022/10/27 02:56:16;;;;;;;2.97;2.67;;;19.40;99.90;;;;;;4147450;28;20240;-76
2022/10/27 02:58:19;;;;;;;3.35;2.13;;;19.40;99.90;;;;;;4146130;28;20224;-76
2022/10/27 03:00:21;;;;;;;4.32;2.80;;;19.40;99.90;;;;;;4148401;28;20264;-76
2022/10/27 03:02:23;;;;;;;4.25;2.50;;;19.40;99.90;;;;;;4147071;28;20233;-76
2022/10/27 03:04:26;;;;;;;4.60;2.72;;;19.40;99.90;;;;;;4146065;28;20221;-76
2022/10/27 03:06:28;;;;;;;4.72;2.53;;;19.40;99.90;;;;;;4147453;28;20229;-76
2022/10/27 03:08:30;;;;;;;4.50;2.70;;;19.40;99.90;;;;;;4144625;28;20209;-76
2022/10/27 03:10:34;;;;;;;3.28;2.22;;;19.40;99.90;;;;;;4149013;28;20217;-76
2022/10/27 03:12:37;;;;;;;5.05;2.72;;;19.40;99.90;;;;;;4143479;28;20275;-75
2022/10/27 03:14:39;;;;;;;2.92;2.47;;;19.40;99.90;;;;;;4140894;28;20267;-76
2022/10/27 03:16:41;;;;;;;3.63;2.28;;;19.40;99.90;;;;;;4148092;28;20735;-76
2022/10/27 03:18:44;;;;;;;3.97;2.50;;;19.40;99.90;;;;;;4144851;28;20212;-76
2022/10/27 03:20:46;;;;;;;3.60;2.50;;;19.40;99.90;;;;;;4144328;28;20267;-76
2022/10/27 03:22:48;;;;;;;4.75;2.42;;;19.40;99.90;;;;;;4144412;28;20241;-75
2022/10/27 03:24:50;;;;;;;3.78;2.40;;;19.40;99.90;;;;;;4141044;28;20665;-76
2022/10/27 03:26:54;;;;;;;4.43;2.63;;;19.40;99.90;;;;;;4142512;28;20213;-76
2022/10/27 03:28:56;;;;;;;3.67;2.30;;;19.40;99.90;;;;;;4146047;28;20217;-75
2022/10/27 03:30:58;;;;;;;2.92;2.03;;;19.40;99.90;;;;;;4144998;28;20228;-76
2022/10/27 03:33:01;;;;;;;4.10;2.50;;;19.40;99.90;;;;;;4139539;28;20217;-76
2022/10/27 03:35:03;;;;;;;4.13;2.50;;;19.40;99.90;;;;;;4146695;28;20282;-76
2022/10/27 03:37:06;;;;;;;3.38;2.10;;;19.40;99.90;;;;;;4143968;28;20656;-76
2022/10/27 03:39:08;;;;;;;4.63;2.35;;;19.40;99.90;;;;;;4143288;28;20217;-76
2022/10/27 03:41:10;;;;;;;5.70;2.67;;;19.40;99.90;;;;;;4147696;28;21648;-76
2022/10/27 03:43:14;;;;;;;2.95;2.42;;;19.40;99.90;;;;;;4143222;28;20279;-76
2022/10/27 03:45:16;;;;;;;4.05;2.42;;;19.40;99.90;;;;;;4146593;28;20233;-76
2022/10/27 03:47:19;;;;;;;3.33;2.17;;;19.40;99.90;;;;;;4144517;28;20491;-76
2022/10/27 03:49:21;;;;;;;4.10;2.50;;;19.40;99.90;;;;;;4144071;28;20569;-76
2022/10/27 03:51:23;;;;;;;3.97;2.72;;;19.40;99.90;;;;;;4148373;28;20307;-75
2022/10/27 03:53:26;;;;;;;3.65;2.33;;;19.40;99.90;;;;;;4145554;28;20307;-76
2022/10/27 03:55:28;;;;;;;4.93;2.72;;;19.40;99.90;;;;;;4145516;28;20248;-76
2022/10/27 03:57:30;;;;;;;3.88;2.55;;;19.30;99.90;;;;;;4143877;28;20279;-76
2022/10/27 03:59:34;;;;;;;3.55;2.10;;;19.40;99.90;;;;;;4145458;28;20338;-75
2022/10/27 04:01:36;;;;;;;3.78;2.50;;;19.40;99.90;;;;;;4143818;28;20237;-76
2022/10/27 04:03:38;;;;;;;4.78;2.38;;;19.40;99.90;;;;;;4145504;28;20272;-75
2022/10/27 04:05:41;;;;;;;5.80;2.30;;;19.40;99.90;;;;;;4150885;28;20225;-76
2022/10/27 04:07:43;;;;;;;4.07;2.38;;;19.40;99.90;;;;;;4145916;28;20228;-76
2022/10/27 04:09:45;;;;;;;3.85;2.30;;;19.40;99.90;;;;;;4148371;28;20279;-76
2022/10/27 04:11:47;;;;;;;3.95;2.25;;;19.40;99.90;;;;;;4143312;28;20229;-76
2022/10/27 04:13:50;;;;;;;3.95;2.63;;;19.30;99.90;;;;;;4147796;28;20221;-76
2022/10/27 04:15:53;;;;;;;3.25;2.30;;;19.40;99.90;;;;;;4141937;28;20213;-76
2022/10/27 04:17:57;;;;;;;4.53;2.38;;;19.40;99.90;;;;;;4143640;28;20217;-76
2022/10/27 04:19:59;;;;;;;2.80;2.28;;;19.30;99.90;;;;;;4149922;28;20292;-76
2022/10/27 04:22:01;;;;;;;2.85;2.22;;;19.40;99.90;;;;;;4148554;28;20221;-76
2022/10/27 04:24:04;;;;;;;2.95;2.40;;;19.40;99.90;;;;;;4147998;28;20249;-76
2022/10/27 04:26:07;;;;;;;4.00;2.67;;;19.30;99.90;;;;;;4152937;28;20224;-75
2022/10/27 04:28:09;;;;;;;3.97;2.10;;;19.40;99.90;;;;;;4149456;28;20233;-75
2022/10/27 04:30:12;;;;;;;2.83;1.98;;;19.30;99.90;;;;;;4146966;28;20620;-75
2022/10/27 04:32:15;;;;;;;3.08;2.00;;;19.30;99.90;;;;;;4145302;28;20264;-76
2022/10/27 04:34:18;;;;;;;3.90;2.40;;;19.40;99.90;;;;;;4148022;28;20213;-76
2022/10/27 04:36:20;;;;;;;2.63;2.05;;;19.30;99.90;;;;;;4146308;28;20259;-76
2022/10/27 04:38:22;;;;;;;2.55;1.95;;;19.30;99.90;;;;;;4144043;28;20209;-75
2022/10/27 04:40:25;;;;;;;2.50;1.92;;;19.40;99.90;;;;;;4151211;28;20677;-76
2022/10/27 04:42:27;;;;;;;4.65;2.53;;;19.30;99.90;;;;;;4148850;28;20657;-75
2022/10/27 04:44:29;;;;;;;2.97;2.20;;;19.30;99.90;;;;;;4147612;28;20643;-76
2022/10/27 04:46:31;;;;;;;3.53;2.25;;;19.30;99.90;;;;;;4145130;28;20217;-76
2022/10/27 04:48:35;;;;;;;3.13;2.13;;;19.30;99.90;;;;;;4147500;28;20221;-76
2022/10/27 04:50:37;;;;;;;4.15;2.42;;;19.30;99.90;;;;;;4147832;28;20268;-75
2022/10/27 04:52:40;;;;;;;2.95;2.00;;;19.30;99.90;;;;;;4145038;28;20844;-76
2022/10/27 04:54:43;;;;;;;4.13;2.30;;;19.30;99.90;;;;;;4145448;28;20252;-76
2022/10/27 04:56:45;;;;;;;3.15;2.15;;;19.40;99.90;;;;;;4146911;28;20268;-76
2022/10/27 04:58:48;;;;;;;4.60;1.98;;;19.30;99.90;;;;;;4146006;28;20364;-76
2022/10/27 05:00:50;;;;;;;3.75;2.40;;;19.30;99.90;;;;;;4148269;28;20716;-75
2022/10/27 05:02:53;;;;;;;2.88;2.20;;;19.30;99.90;;;;;;4140466;28;20217;-76
2022/10/27 05:04:57;;;;;;;3.38;2.22;;;19.30;99.90;;;;;;4152239;28;20283;-76
2022/10/27 05:06:59;;;;;;;4.00;1.88;;;19.30;99.90;;;;;;4154186;28;20282;-76
2022/10/27 05:09:01;;;;;;;2.53;2.10;;;19.30;99.90;;;;;;4146205;28;20224;-76
2022/10/27 05:11:04;;;;;;;4.32;1.92;;;19.30;99.90;;;;;;4144657;28;20751;-76
2022/10/27 05:13:06;;;;;;;3.28;2.10;;;19.30;99.90;;;;;;4148569;28;20221;-76
2022/10/27 05:15:09;;;;;;;4.65;2.53;;;19.30;99.90;;;;;;4147341;28;20217;-76
2022/10/27 05:17:12;;;;;;;4.40;2.13;;;19.30;99.90;;;;;;4149686;28;20662;-76
2022/10/27 05:19:14;;;;;;;2.90;1.90;;;19.30;99.90;;;;;;4144424;28;20271;-76
2022/10/27 05:21:17;;;;;;;3.88;2.00;;;19.30;99.90;;;;;;4144289;28;20217;-76
2022/10/27 05:23:20;;;;;;;2.55;1.95;;;19.30;99.90;;;;;;4145984;28;20271;-76
2022/10/27 05:25:22;;;;;;;3.53;1.90;;;19.30;99.90;;;;;;4154192;28;20225;-75
2022/10/27 05:27:24;;;;;;;3.35;2.15;;;19.30;99.90;;;;;;4150785;28;20209;-76
2022/10/27 05:29:27;;;;;;;2.17;1.85;;;19.30;99.90;;;;;;4145795;28;20533;-75
2022/10/27 05:31:29;;;;;;;4.93;2.25;;;19.30;99.90;;;;;;4147213;28;20263;-76
2022/10/27 05:33:31;;;;;;;4.38;2.25;;;19.30;99.90;;;;;;4149832;28;20275;-75
2022/10/27 05:35:33;;;;;;;3.05;1.80;;;19.30;99.90;;;;;;4148794;28;20268;-76
2022/10/27 05:37:43;;;;;;;3.05;1.90;;;19.30;99.90;;;;;;4148562;28;20217;-76
2022/10/27 05:39:45;;;;;;;2.70;1.90;;;19.30;99.90;;;;;;4143674;28;20636;-76
2022/10/27 05:41:47;;;;;;;2.85;1.92;;;19.30;99.90;;;;;;4149166;28;20213;-76
2022/10/27 05:43:49;;;;;;;2.75;1.95;;;19.30;99.90;;;;;;4145817;28;20236;-75
2022/10/27 05:45:52;;;;;;;4.85;2.40;;;19.30;99.90;;;;;;4146038;28;20243;-75
2022/10/27 05:47:58;;;;;;;3.92;1.85;;;19.30;99.90;;;;;;4145141;28;20283;-76
2022/10/27 05:50:03;;;;;;;2.83;1.90;;;19.30;99.90;;;;;;4147292;28;20221;-76
2022/10/27 05:52:05;;;;;;;2.83;1.70;;;19.30;99.90;;;;;;4146278;28;20217;-76
2022/10/27 05:54:09;;;;;;;3.30;2.47;;;19.30;99.90;;;;;;4150967;28;20362;-76
2022/10/27 05:56:11;;;;;;;2.45;1.70;;;19.30;99.90;;;;;;4149056;28;20565;-76
2022/10/27 05:58:14;;;;;;;2.10;1.63;;;19.30;99.90;;;;;;4145925;28;20272;-76
2022/10/27 06:00:16;;;;;;;2.90;1.75;;;19.30;99.90;;;;;;4146081;28;20296;-76
2022/10/27 06:02:18;;;;;;;2.80;1.83;;;19.30;99.90;;;;;;4144933;28;20655;-76
2022/10/27 06:04:21;;;;;;;3.28;1.83;;;19.30;99.90;;;;;;4152243;28;20298;-76
2022/10/27 06:06:23;;;;;;;2.30;1.52;;;19.30;99.90;;;;;;4154504;28;20217;-76
2022/10/27 06:08:25;;;;;;;2.85;2.30;;;19.30;99.90;;;;;;4149175;28;20278;-76
2022/10/27 06:10:29;;;;;;;4.53;2.15;;;19.30;99.90;;;;;;4144475;28;20213;-76
2022/10/27 06:12:31;;;;;;;2.90;2.05;;;19.30;99.90;;;;;;4153439;28;20282;-76
2022/10/27 06:14:33;;;;;;;2.63;1.73;;;19.30;99.90;;;;;;4153804;28;20270;-76
2022/10/27 06:16:35;;;;;;;2.75;1.80;;;19.30;99.90;;;;;;4144838;28;20286;-75
2022/10/27 06:18:38;;;;;;;2.40;1.73;;;19.30;99.90;;;;;;4145122;28;21558;-76
2022/10/27 06:20:40;;;;;;;2.55;2.00;;;19.30;99.90;;;;;;4148868;28;20262;-76
2022/10/27 06:22:46;;;;;;;2.63;1.70;;;19.30;99.90;;;;;;4148610;28;20297;-76
2022/10/27 06:24:48;;;;;;;2.17;1.60;;;19.30;99.90;;;;;;4148096;28;20286;-75
2022/10/27 06:26:52;;;;;;;2.45;1.70;;;19.30;99.90;;;;;;4153090;28;20217;-76
2022/10/27 06:28:54;;;;;;;3.28;2.05;;;19.30;99.90;;;;;;4146112;28;20271;-75
2022/10/27 06:30:57;;;;;;;2.85;1.92;;;19.30;99.90;;;;;;4147817;28;20217;-76
2022/10/27 06:32:59;;;;;;;2.65;1.70;;;19.30;99.90;;;;;;4140369;28;20222;-76
2022/10/27 06:35:01;;;;;;;3.03;2.00;;;19.30;99.90;;;;;;4145488;28;20289;-76
2022/10/27 06:37:04;;;;;;;5.03;2.05;;;19.30;99.90;;;;;;4141479;28;20621;-76
2022/10/27 06:39:06;;;;;;;2.33;1.50;;;19.30;99.90;;;;;;4144656;28;20217;-76
2022/10/27 06:41:09;;;;;;;3.85;2.25;;;19.30;99.90;;;;;;4139756;28;20650;-76
2022/10/27 06:43:13;;;;;;;2.53;1.90;;;19.30;99.90;;;;;;4144439;28;20275;-76
2022/10/27 06:45:15;;;;;;;3.15;2.08;;;19.30;99.90;;;;;;4146782;28;20236;-76
2022/10/27 06:47:18;;;;;;;2.72;1.83;;;19.30;99.90;;;;;;4143141;28;20280;-76
2022/10/27 06:49:20;;;;;;;3.15;2.20;;;19.30;99.90;;;;;;4144153;28;20318;-76
2022/10/27 06:51:22;;;;;;;3.17;1.88;;;19.30;99.90;;;;;;4134690;28;20221;-76
2022/10/27 06:53:25;;;;;;;1.75;1.23;;;19.20;99.90;;;;;;4145494;28;20317;-76
2022/10/27 06:55:27;;;;;;;4.68;1.73;;;19.30;99.90;;;;;;4143220;28;20213;-76
2022/10/27 06:57:29;;;;;;;2.50;1.80;;;19.30;99.90;;;;;;4145406;28;20263;-76
2022/10/27 06:59:33;;;;;;;3.53;1.80;;;19.30;99.90;;;;;;4140000;28;20217;-76
2022/10/27 07:01:35;;;;;;;1.90;1.45;;;19.30;99.90;;;;;;4146994;28;20233;-77
2022/10/27 07:03:37;;;;;;;2.08;1.48;;;19.30;99.90;;;;;;4143314;28;20416;-75
2022/10/27 07:05:40;;;;;;;2.80;2.03;;;19.30;99.90;;;;;;4138883;28;20327;-76
2022/10/27 07:07:46;;;;;;;2.83;1.67;;;19.30;99.90;;;;;;4143673;28;20217;-76
2022/10/27 07:09:48;;;;;;;3.90;1.50;;;19.30;99.90;;;;;;4140746;28;20216;-76
2022/10/27 07:11:51;;;;;;;2.40;1.58;;;19.30;99.90;;;;;;4145831;28;20645;-77
2022/10/27 07:13:53;;;;;;;5.53;1.98;;;19.30;99.90;;;;;;4143876;28;20216;-76
2022/10/27 07:15:56;;;;;;;3.60;1.73;;;19.30;99.90;;;;;;4143980;28;20275;-76
2022/10/27 07:18:00;;;;;;;2.00;1.52;;;19.40;99.90;;;;;;4140617;28;20214;-75
2022/10/27 07:20:02;;;;;;;3.60;2.00;;;19.40;99.90;;;;;;4140791;28;20221;-75
2022/10/27 07:22:05;;;;;;;2.60;1.80;;;19.40;99.90;;;;;;4140961;28;20213;-75
2022/10/27 07:24:07;;;;;;;4.72;1.70;;;19.40;99.90;;;;;;4142877;28;20213;-75
2022/10/27 07:26:10;;;;;;;6.03;1.80;;;19.50;99.90;;;;;;4142329;28;20237;-77
2022/10/27 07:28:12;;;;;;;3.53;1.73;;;19.50;99.90;;;;;;4139478;28;20218;-76
2022/10/27 07:30:14;;;;;;;3.40;1.77;;;19.50;99.90;;;;;;4140133;28;20212;-75
2022/10/27 07:32:18;;;;;;;5.20;2.08;;;19.50;99.90;;;;;;4132201;28;20348;-74
2022/10/27 07:34:20;;;;;;;3.13;1.70;;;19.60;99.90;;;;;;4133406;28;20225;-74
2022/10/27 07:36:22;;;;;;;3.25;1.67;;;19.60;99.90;;;;;;4141044;28;20221;-75
2022/10/27 07:38:27;;;;;;;5.00;1.90;;;19.60;99.90;;;;;;4138877;28;20209;-74
2022/10/27 07:40:30;;;;;;;2.97;1.73;;;19.60;99.90;;;;;;4140260;28;20260;-74
2022/10/27 07:42:32;;;;;;;3.83;1.75;;;19.70;99.90;;;;;;4141776;28;21347;-77
2022/10/27 07:44:34;;;;;;;3.08;1.80;;;19.70;99.90;;;;;;4144722;28;20217;-74
2022/10/27 07:46:36;;;;;;;3.10;1.77;;;19.80;99.90;;;;;;4138012;28;20245;-75
2022/10/27 07:48:41;;;;;;;5.60;1.70;;;19.80;99.90;;;;;;4136698;28;20221;-74
2022/10/27 07:50:43;;;;;;;4.40;1.70;;;19.80;99.90;;;;;;4143325;28;20293;-75
2022/10/27 07:52:48;;;;;;;4.03;1.98;;;19.80;99.90;;;;;;4143502;28;20275;-74
2022/10/27 07:54:50;;;;;;;3.00;1.52;;;19.80;99.90;;;;;;4142390;28;20285;-76
2022/10/27 07:56:52;;;;;;;2.50;1.75;;;19.80;99.90;;;;;;4144758;28;20217;-75
2022/10/27 07:58:54;;;;;;;4.60;1.80;;;19.80;99.90;;;;;;4143006;28;20273;-75
2022/10/27 08:00:58;;;;;;;2.15;1.15;;;19.80;99.90;;;;;;4142399;28;20598;-76
2022/10/27 08:03:01;;;;;;;2.67;1.40;;;19.90;99.90;;;;;;4143531;28;20217;-75
2022/10/27 08:05:06;;;;;;;3.75;1.50;;;19.90;99.90;;;;;;4140541;28;20271;-74
2022/10/27 08:07:09;;;;;;;1.83;1.45;;;19.90;99.90;;;;;;4143161;28;20318;-75
2022/10/27 08:09:11;;;;;;;4.20;1.83;;;19.90;99.90;;;;;;4147644;28;20212;-74
2022/10/27 08:11:13;;;;;;;3.30;1.50;;;19.90;99.90;;;;;;4147700;28;20217;-73
2022/10/27 08:13:17;;;;;;;3.85;1.55;;;19.90;99.90;;;;;;4143863;28;20629;-73
2022/10/27 08:15:19;;;;;;;3.88;1.48;;;20.00;99.90;;;;;;4146513;28;20262;-74
2022/10/27 08:17:21;;;;;;;3.95;1.50;;;20.00;99.90;;;;;;4144060;28;20225;-75
2022/10/27 08:19:23;;;;;;;3.75;1.65;;;20.00;99.90;;;;;;4143801;28;20283;-75
2022/10/27 08:21:27;;;;;;;5.15;1.80;;;20.00;99.90;;;;;;4145991;28;20298;-74
2022/10/27 08:23:29;;;;;;;3.38;1.75;;;20.00;99.90;;;;;;4144665;28;20578;-73
2022/10/27 08:25:32;;;;;;;2.47;1.55;;;20.00;99.90;;;;;;4147521;28;20268;-73
2022/10/27 08:27:35;;;;;;;3.20;1.70;;;20.00;99.90;;;;;;4143897;28;20721;-73
2022/10/27 08:29:37;;;;;;;2.58;1.50;;;20.00;99.90;;;;;;4150854;28;20212;-73
2022/10/27 08:31:39;;;;;;;4.20;1.50;;;20.10;99.90;;;;;;4145047;28;20217;-74
2022/10/27 08:33:42;;;;;;;1.63;1.40;;;20.10;99.90;;;;;;4146580;28;20209;-74
2022/10/27 08:35:44;;;;;;;2.25;1.63;;;20.10;99.90;;;;;;4140868;28;20213;-73
2022/10/27 08:37:48;;;;;;;3.25;1.63;;;20.10;99.90;;;;;;4142609;28;20617;-75
2022/10/27 08:39:50;;;;;;;3.08;1.50;;;20.10;99.90;;;;;;4136985;28;20225;-75
2022/10/27 08:41:59;;;;;;;2.60;1.40;;;20.10;99.90;;;;;;4145291;28;20630;-76
2022/10/27 08:44:22;;;;;;;2.67;1.38;;;20.10;99.90;;;;;;4139706;28;20221;-73
2022/10/27 08:46:27;;;;;;;2.17;1.42;;;20.10;99.90;;;;;;4145512;28;20255;-73
2022/10/27 08:48:32;;;;;;;3.50;1.60;;;20.10;99.90;;;;;;4148360;28;20699;-72
2022/10/27 08:50:41;;;;;;;2.35;1.38;;;20.20;99.90;;;;;;4147429;28;20720;-76
2022/10/27 08:52:50;;;;;;;2.08;1.60;;;20.20;99.90;;;;;;4139463;28;20206;-76
2022/10/27 08:54:57;;;;;;;2.72;1.58;;;20.10;99.90;;;;;;4136733;28;20225;-78
2022/10/27 08:57:02;;;;;;;4.18;1.45;;;20.10;99.90;;;;;;4136026;28;20296;-79
2022/10/27 08:59:04;;;;;;;3.28;1.40;;;20.20;99.90;;;;;;4144533;28;20225;-77
2022/10/27 09:01:17;;;;;;;1.42;1.23;;;20.20;99.90;;;;;;4144853;28;20217;-77
2022/10/27 09:03:39;;;;;;;6.28;1.50;;;20.20;99.90;;;;;;4138636;28;20294;-78
2022/10/27 09:05:55;;;;;;;2.10;1.40;;;20.20;99.90;;;;;;4140990;28;20238;-76
2022/10/27 09:08:06;;;;;;;3.63;1.60;;;20.20;99.90;;;;;;4144337;28;20221;-76
2022/10/27 09:10:19;;;;;;;7.60;1.63;;;20.20;99.90;;;;;;4142914;28;20220;-76
2022/10/27 09:12:59;;;;;;;3.38;1.55;;;20.20;99.90;;;;;;4138771;28;20295;-76
2022/10/27 09:15:20;;;;;;;2.47;1.48;;;20.10;99.90;;;;;;4136271;28;20209;-77
2022/10/27 09:17:27;;;;;;;3.53;2.00;;;20.10;99.90;;;;;;4141911;28;20218;-77
2022/10/27 09:19:33;;;;;;;3.70;1.65;;;20.20;99.90;;;;;;4141689;28;20268;-79
2022/10/27 09:21:38;;;;;;;2.92;1.80;;;20.20;99.90;;;;;;4143570;28;20217;-78
2022/10/27 09:23:45;;;;;;;3.47;1.52;;;20.30;99.90;;;;;;4145920;28;20224;-78
2022/10/27 09:26:00;;;;;;;2.10;1.42;;;20.20;99.90;;;;;;4140344;28;21138;-74
2022/10/27 09:28:03;;;;;;;3.45;1.38;;;20.30;99.90;;;;;;4139747;28;20213;-75
2022/10/27 09:30:07;;;;;;;3.67;1.58;;;20.30;99.90;;;;;;4135192;28;20595;-75
2022/10/27 09:32:18;;;;;;;3.42;1.40;;;20.40;99.90;;;;;;4140791;28;20740;-76
2022/10/27 09:34:26;;;;;;;3.28;1.48;;;20.30;99.90;;;;;;4139846;28;20264;-75
2022/10/27 09:36:28;;;;;;;3.20;1.48;;;20.30;99.90;;;;;;4142208;28;20220;-75
2022/10/27 09:38:30;;;;;;;3.70;1.65;;;20.40;99.90;;;;;;4142934;28;20267;-75
2022/10/27 09:40:34;;;;;;;5.25;1.90;;;20.40;99.90;;;;;;4143897;28;20634;-76
2022/10/27 09:42:37;;;;;;;4.30;1.33;;;20.40;99.90;;;;;;4141629;28;20283;-76
2022/10/27 09:44:40;;;;;;;10.52;2.30;;;20.40;99.90;;;;;;4135234;28;20218;-75
2022/10/27 09:46:42;;;;;;;12.25;2.20;;;20.40;99.90;;;;;;4134583;28;20650;-76
2022/10/27 09:48:44;;;;;;;3.88;1.83;;;20.40;99.90;;;;;;4143231;28;20299;-76
2022/10/27 09:50:52;;;;;;;2.58;1.67;;;20.40;99.90;;;;;;4153132;28;20221;-79
2022/10/27 09:52:54;;;;;;;4.45;1.50;;;20.50;99.90;;;;;;4144644;28;20216;-78
2022/10/27 09:54:57;;;;;;;3.80;1.80;;;20.40;99.90;;;;;;4145820;28;20935;-78
2022/10/27 09:57:07;;;;;;;3.58;1.70;;;20.50;99.90;;;;;;4144501;28;20274;-76
2022/10/27 09:59:21;;;;;;;5.90;1.70;;;20.30;99.90;;;;;;4136225;28;20283;-76
2022/10/27 10:01:25;;;;;;;3.28;1.70;;;20.40;99.90;;;;;;4136381;28;20314;-75
2022/10/27 10:03:27;;;;;;;3.97;1.77;;;20.40;99.90;;;;;;4143889;28;20221;-76
2022/10/27 10:05:32;;;;;;;2.45;1.65;;;20.40;99.90;;;;;;4140276;28;20213;-75
2022/10/27 10:07:36;;;;;;;6.13;2.00;;;20.50;99.90;;;;;;4140134;28;20244;-75
2022/10/27 10:09:39;;;;;;;4.05;1.85;;;20.50;99.90;;;;;;4145054;28;20221;-75
2022/10/27 10:11:41;;;;;;;1.67;1.45;;;20.50;99.90;;;;;;4142303;28;20655;-74
2022/10/27 10:13:56;;;;;;;3.60;1.83;;;20.50;99.90;;;;;;4145433;28;20291;-75
2022/10/27 10:16:10;;;;;;;2.63;1.58;;;20.50;99.90;;;;;;4141603;28;20279;-76
2022/10/27 10:18:25;;;;;;;4.25;1.85;;;20.50;99.90;;;;;;4137272;28;20216;-74
2022/10/27 10:20:33;;;;;;;5.32;2.22;;;20.60;99.90;;;;;;4142787;28;20213;-74
2022/10/27 10:22:36;;;;;;;3.15;1.70;;;20.60;99.90;;;;;;4142786;28;20619;-75
2022/10/27 10:24:38;;;;;;;3.08;1.83;;;20.60;99.90;;;;;;4139742;28;20558;-74
2022/10/27 10:26:46;;;;;;;3.20;1.52;;;20.60;99.90;;;;;;4141439;28;20287;-76
2022/10/27 10:28:53;;;;;;;3.65;1.83;;;20.60;99.90;;;;;;4144524;28;20209;-75
2022/10/27 10:30:56;;;;;;;3.83;2.13;;;20.60;99.90;;;;;;4141565;28;20272;-75
2022/10/27 10:32:59;;;;;;;4.38;2.00;;;20.50;99.90;;;;;;4146800;28;20243;-74
2022/10/27 10:35:02;;;;;;;3.55;2.10;;;20.60;99.90;;;;;;4141673;28;20280;-74
2022/10/27 10:37:28;;;;;;;5.75;2.65;;;20.60;99.90;;;;;;4137559;28;20275;-74
2022/10/27 10:39:34;;;;;;;9.20;2.10;;;20.60;99.90;;;;;;4137785;28;20221;-75
2022/10/27 10:41:37;;;;;;;7.40;2.47;;;20.60;99.90;;;;;;4138609;28;20346;-76
2022/10/27 10:43:40;;;;;;;5.57;2.92;;;20.60;99.90;;;;;;4141102;28;20552;-77
2022/10/27 10:45:51;;;;;;;7.38;2.95;;;20.60;99.90;;;;;;4139446;28;20222;-77
2022/10/27 10:47:58;;;;;;;7.30;2.95;;;20.60;99.90;;;;;;4149065;28;20248;-74
2022/10/27 10:50:02;;;;;;;7.15;2.63;;;20.60;99.90;;;;;;4142431;28;20234;-75